Time;durP1;ratioP1;P1;durP2;ratioP2;P2;SDS_P1;SDS_P2;PMS_P1;PMS_P2;Temp;Humidity;BMP_temperature;BMP_pressure;BME280_temperature;BME280_humidity;BME280_pressure;Samples;Min_cycle;Max_cycle;Signal;HPM_P1;HPM_P2
2022/05/13 00:01:24;;;;;;;;;;;;;;;10.91;67.34;100591.03;4998218;28;1501;-90
2022/05/13 00:03:49;;;;;;;;;;;;;;;11.16;67.13;100587.34;5014682;28;1420;-89
2022/05/13 00:06:14;;;;;;;;;;;;;;;11.14;67.33;100593.13;4998829;28;957;-89
2022/05/13 00:08:40;;;;;;;;;;;;;;;11.33;66.20;100580.38;5000576;28;1303;-90
2022/05/13 00:11:07;;;;;;;;;;;;;;;10.62;68.66;100582.66;5007106;28;1468;-90
2022/05/13 00:13:32;;;;;;;;;;;;;;;11.07;67.50;100578.06;4997924;28;1902;-89
2022/05/13 00:15:59;;;;;;;;;;;;;;;11.03;66.93;100582.50;4997771;28;1464;-90
2022/05/13 00:18:24;;;;;;;;;;;;;;;11.26;66.62;100584.56;4997938;28;1392;-88
2022/05/13 00:20:49;;;;;;;;;;;;;;;10.65;67.82;100582.09;5004755;28;1520;-89
2022/05/13 00:23:14;;;;;;;;;;;;;;;10.28;69.01;100582.47;5021998;28;1365;-88
2022/05/13 00:25:39;;;;;;;;;;;;;;;10.54;69.10;100575.03;5021497;28;1255;-89
2022/05/13 00:28:06;;;;;;;;;;;;;;;10.38;68.36;100576.16;5015314;28;1737;-88
2022/05/13 00:30:33;;;;;;;;;;;;;;;10.00;70.81;100575.63;5015535;28;1302;-89
2022/05/13 00:33:00;;;;;;;;;;;;;;;9.89;70.50;100576.72;4997494;28;1910;-88
2022/05/13 00:35:25;;;;;;;;;;;;;;;10.33;69.03;100579.72;4998066;28;1213;-88
2022/05/13 00:37:50;;;;;;;;;;;;;;;9.86;69.70;100575.38;5014905;28;1308;-89
2022/05/13 00:40:17;;;;;;;;;;;;;;;10.50;68.63;100571.19;5013112;28;1309;-89
2022/05/13 00:42:42;;;;;;;;;;;;;;;10.91;67.39;100567.19;5030477;28;1783;-89
2022/05/13 00:45:08;;;;;;;;;;;;;;;10.66;66.03;100567.31;5015349;28;1079;-89
2022/05/13 00:47:33;;;;;;;;;;;;;;;10.27;69.35;100563.59;4997461;28;1449;-89
2022/05/13 00:49:59;;;;;;;;;;;;;;;10.35;68.52;100563.03;4997940;28;1209;-89
2022/05/13 00:52:26;;;;;;;;;;;;;;;10.81;67.75;100564.50;5002505;28;1606;-89
2022/05/13 00:54:52;;;;;;;;;;;;;;;10.39;67.76;100566.84;5010598;28;1965;-88
2022/05/13 00:57:18;;;;;;;;;;;;;;;10.28;68.92;100559.75;5001299;28;1496;-90
2022/05/13 00:59:45;;;;;;;;;;;;;;;10.33;67.86;100566.03;4997517;28;1274;-88
2022/05/13 01:02:10;;;;;;;;;;;;;;;10.51;67.89;100562.72;5015093;28;1594;-89
2022/05/13 01:04:38;;;;;;;;;;;;;;;10.67;67.07;100565.38;5004986;28;1213;-89
2022/05/13 01:07:05;;;;;;;;;;;;;;;9.72;68.57;100566.06;5023396;28;1012;-90
2022/05/13 01:09:34;;;;;;;;;;;;;;;9.05;72.58;100568.97;5014735;28;1370;-89
2022/05/13 01:12:02;;;;;;;;;;;;;;;9.36;71.74;100573.41;4997292;28;1192;-89
2022/05/13 01:14:34;;;;;;;;;;;;;;;10.28;70.01;100574.25;4996841;28;1902;-88
2022/05/13 01:20:03;;;;;;;;;;;;;;;10.19;69.53;100578.66;5021327;28;1385;-89
2022/05/13 01:22:28;;;;;;;;;;;;;;;9.59;70.59;100574.81;5014762;28;992;-89
2022/05/13 01:24:54;;;;;;;;;;;;;;;9.92;71.63;100570.72;5012780;28;1375;-90
2022/05/13 01:27:19;;;;;;;;;;;;;;;10.42;68.53;100569.03;4996779;28;1797;-90
2022/05/13 01:29:44;;;;;;;;;;;;;;;10.56;68.49;100565.41;4996904;28;1185;-89
2022/05/13 01:32:09;;;;;;;;;;;;;;;10.74;68.49;100572.19;5007454;28;1586;-89
2022/05/13 01:34:35;;;;;;;;;;;;;;;10.87;67.56;100568.06;5004677;28;1886;-89
2022/05/13 01:37:00;;;;;;;;;;;;;;;10.65;68.52;100565.66;4993610;28;1519;-89
2022/05/13 01:39:25;;;;;;;;;;;;;;;10.77;67.70;100574.38;5010002;28;1166;-89
2022/05/13 01:41:50;;;;;;;;;;;;;;;10.36;68.89;100570.97;4996006;28;1437;-88
2022/05/13 01:44:15;;;;;;;;;;;;;;;10.19;70.14;100571.28;5004125;28;1417;-89
2022/05/13 01:46:40;;;;;;;;;;;;;;;10.50;68.28;100563.81;5024121;28;1835;-88
2022/05/13 01:49:05;;;;;;;;;;;;;;;10.53;67.31;100562.44;5011244;28;1748;-89
2022/05/13 01:51:31;;;;;;;;;;;;;;;10.38;68.81;100565.22;4996495;28;1355;-89
2022/05/13 01:53:56;;;;;;;;;;;;;;;10.46;67.40;100565.44;4997949;28;1972;-90
2022/05/13 01:56:21;;;;;;;;;;;;;;;9.95;69.38;100569.34;4991172;28;1698;-89
2022/05/13 01:58:46;;;;;;;;;;;;;;;10.15;70.09;100561.09;5016891;28;1574;-89
2022/05/13 02:01:12;;;;;;;;;;;;;;;10.22;69.50;100565.22;5007981;28;1359;-89
2022/05/13 02:03:46;;;;;;;;;;;;;;;10.37;68.90;100555.38;4997675;28;1051;-88
2022/05/13 02:06:13;;;;;;;;;;;;;;;10.39;67.77;100564.91;5012738;28;1716;-89
2022/05/13 02:08:38;;;;;;;;;;;;;;;10.41;67.60;100565.47;4996902;28;1342;-89
2022/05/13 02:11:03;;;;;;;;;;;;;;;10.47;67.58;100575.28;5012689;28;1281;-89
2022/05/13 02:13:28;;;;;;;;;;;;;;;10.44;67.87;100578.59;4995303;28;1923;-89
2022/05/13 02:15:54;;;;;;;;;;;;;;;9.91;69.27;100580.00;5018127;28;1119;-89
2022/05/13 02:18:19;;;;;;;;;;;;;;;9.61;69.80;100582.75;4999843;28;1081;-90
2022/05/13 02:20:45;;;;;;;;;;;;;;;9.86;70.02;100575.38;4996274;28;1358;-89
2022/05/13 02:23:10;;;;;;;;;;;;;;;9.90;69.18;100581.09;4992588;28;1663;-89
2022/05/13 02:25:35;;;;;;;;;;;;;;;9.88;69.70;100575.06;5004439;28;1375;-89
2022/05/13 02:28:01;;;;;;;;;;;;;;;9.95;68.25;100574.81;5002675;28;1649;-89
2022/05/13 02:30:27;;;;;;;;;;;;;;;10.09;68.74;100575.91;4995643;28;1578;-89
2022/05/13 02:32:52;;;;;;;;;;;;;;;10.18;68.45;100569.63;4994409;28;1952;-89
2022/05/13 02:35:18;;;;;;;;;;;;;;;9.83;68.67;100575.09;4996042;28;1371;-89
2022/05/13 02:37:43;;;;;;;;;;;;;;;9.92;70.29;100569.91;5000488;28;1190;-90
2022/05/13 02:40:09;;;;;;;;;;;;;;;10.08;69.25;100566.03;5009301;28;1461;-89
2022/05/13 02:42:34;;;;;;;;;;;;;;;10.17;68.17;100572.59;4999823;28;1733;-88
2022/05/13 02:45:00;;;;;;;;;;;;;;;9.94;68.71;100570.44;5015392;28;1130;-90
2022/05/13 02:47:25;;;;;;;;;;;;;;;9.62;70.23;100574.25;5026130;28;1759;-89
2022/05/13 02:50:17;;;;;;;;;;;;;;;9.80;70.13;100581.09;5007816;28;1367;-90
2022/05/13 02:52:35;;;;;;;;;;;;;;;9.67;69.89;100576.19;5017445;28;1038;-89
2022/05/13 02:55:00;;;;;;;;;;;;;;;9.62;70.05;100576.97;4999686;28;1886;-90
2022/05/13 02:57:26;;;;;;;;;;;;;;;9.85;69.42;100572.91;5017512;28;897;-90
2022/05/13 02:59:51;;;;;;;;;;;;;;;9.99;69.78;100575.91;4999621;28;1276;-89
2022/05/13 03:02:16;;;;;;;;;;;;;;;9.95;68.98;100570.19;5003579;28;1218;-88
2022/05/13 03:04:41;;;;;;;;;;;;;;;9.66;68.72;100567.16;5007229;28;1476;-90
2022/05/13 03:07:06;;;;;;;;;;;;;;;9.31;70.61;100567.94;5013962;28;1075;-89
2022/05/13 03:09:31;;;;;;;;;;;;;;;8.87;71.17;100564.00;5021588;28;1095;-90
2022/05/13 03:11:57;;;;;;;;;;;;;;;9.02;71.79;100564.84;5007796;28;1231;-89
2022/05/13 03:14:22;;;;;;;;;;;;;;;9.38;71.12;100557.56;4998825;28;1898;-90
2022/05/13 03:16:47;;;;;;;;;;;;;;;9.56;69.28;100563.59;5025162;28;1695;-89
2022/05/13 03:19:12;;;;;;;;;;;;;;;9.64;69.85;100566.59;5005991;28;1477;-89
2022/05/13 03:21:37;;;;;;;;;;;;;;;9.48;69.08;100557.59;5036049;28;1181;-89
2022/05/13 03:24:02;;;;;;;;;;;;;;;9.45;69.89;100562.75;5019129;28;1838;-90
2022/05/13 03:26:28;;;;;;;;;;;;;;;9.56;70.17;100560.88;5016181;28;1315;-90
2022/05/13 03:28:53;;;;;;;;;;;;;;;9.16;70.29;100567.09;5021798;28;1621;-88
2022/05/13 03:31:18;;;;;;;;;;;;;;;9.22;71.06;100566.00;5010536;28;1265;-89
2022/05/13 03:33:43;;;;;;;;;;;;;;;8.90;72.17;100572.47;5025502;28;1973;-89
2022/05/13 03:36:10;;;;;;;;;;;;;;;8.86;73.96;100570.53;5016456;28;1464;-89
2022/05/13 03:38:35;;;;;;;;;;;;;;;9.13;71.53;100560.25;4999002;28;1693;-90
2022/05/13 03:41:00;;;;;;;;;;;;;;;9.19;71.36;100563.81;4999728;28;1212;-89
2022/05/13 03:43:25;;;;;;;;;;;;;;;9.45;71.77;100574.50;5025215;28;1389;-90
2022/05/13 03:45:51;;;;;;;;;;;;;;;9.35;72.26;100569.06;5005931;28;1112;-90
2022/05/13 03:48:16;;;;;;;;;;;;;;;9.45;71.86;100579.97;4998547;28;1648;-89
2022/05/13 03:50:42;;;;;;;;;;;;;;;9.25;71.57;100577.22;5000588;28;1322;-90
2022/05/13 03:53:08;;;;;;;;;;;;;;;9.29;72.67;100585.69;4998638;28;1890;-89
2022/05/13 03:55:36;;;;;;;;;;;;;;;9.48;72.08;100587.63;5016785;28;818;-90
2022/05/13 03:58:01;;;;;;;;;;;;;;;9.70;72.82;100586.56;5015120;28;1268;-90
2022/05/13 04:00:27;;;;;;;;;;;;;;;9.76;72.14;100580.03;5019559;28;1351;-90
2022/05/13 04:02:53;;;;;;;;;;;;;;;9.80;72.09;100573.72;4998721;28;1275;-89
2022/05/13 04:10:46;;;;;;;;;;;;;;;10.12;71.44;100564.41;5015502;28;1652;-89
2022/05/13 04:16:04;;;;;;;;;;;;;;;10.30;72.72;100563.03;5016399;28;1254;-90
2022/05/13 04:18:30;;;;;;;;;;;;;;;10.37;72.38;100564.41;5015823;28;1622;-89
2022/05/13 04:20:55;;;;;;;;;;;;;;;10.39;72.43;100572.31;4998206;28;1720;-90
2022/05/13 04:23:21;;;;;;;;;;;;;;;10.40;72.80;100571.22;4994133;28;980;-90
2022/05/13 04:25:46;;;;;;;;;;;;;;;10.24;73.21;100567.69;5011034;28;1221;-90
2022/05/13 04:28:11;;;;;;;;;;;;;;;10.32;73.90;100566.31;5007084;28;1749;-91
2022/05/13 04:30:36;;;;;;;;;;;;;;;10.20;74.96;100567.44;5016035;28;1345;-89
2022/05/13 04:33:02;;;;;;;;;;;;;;;10.18;74.91;100571.53;4998047;28;1894;-92
2022/05/13 04:35:27;;;;;;;;;;;;;;;10.13;74.54;100572.31;4998244;28;1792;-90
2022/05/13 04:37:52;;;;;;;;;;;;;;;10.34;73.96;100577.81;5001260;28;1205;-88
2022/05/13 04:40:18;;;;;;;;;;;;;;;10.40;73.43;100576.69;5013515;28;1815;-90
2022/05/13 04:42:49;;;;;;;;;;;;;;;10.52;73.37;100578.03;5015606;28;1367;-88
2022/05/13 04:45:15;;;;;;;;;;;;;;;10.38;73.32;100576.94;4999280;28;1307;-88
2022/05/13 04:50:24;;;;;;;;;;;;;;;10.21;73.82;100590.94;5016598;28;1740;-89
2022/05/13 04:52:49;;;;;;;;;;;;;;;10.31;75.12;100584.63;4995944;28;1255;-89
2022/05/13 04:55:14;;;;;;;;;;;;;;;10.39;73.64;100577.78;4997203;28;1899;-89
2022/05/13 04:57:40;;;;;;;;;;;;;;;10.19;75.59;100576.75;4998787;28;1196;-89
2022/05/13 05:00:07;;;;;;;;;;;;;;;10.50;74.71;100582.97;4998178;28;1291;-88
2022/05/13 05:02:33;;;;;;;;;;;;;;;10.69;74.65;100571.41;4997852;28;1165;-89
2022/05/13 05:04:58;;;;;;;;;;;;;;;10.76;75.21;100578.22;5001911;28;1216;-89
2022/05/13 05:07:23;;;;;;;;;;;;;;;10.71;74.88;100591.13;5024804;28;1431;-89
2022/05/13 05:09:48;;;;;;;;;;;;;;;10.69;74.92;100594.13;5005834;28;1453;-89
2022/05/13 05:12:14;;;;;;;;;;;;;;;10.62;75.99;100590.88;5017430;28;984;-89
2022/05/13 05:14:39;;;;;;;;;;;;;;;10.71;76.24;100577.44;5017481;28;1957;-88
2022/05/13 05:17:05;;;;;;;;;;;;;;;10.86;75.16;100580.91;4999626;28;1463;-89
2022/05/13 05:19:31;;;;;;;;;;;;;;;10.76;75.26;100585.63;4998002;28;1434;-89
2022/05/13 05:21:56;;;;;;;;;;;;;;;10.93;75.21;100591.56;5002204;28;1447;-89
2022/05/13 05:24:21;;;;;;;;;;;;;;;11.08;73.81;100596.16;5018207;28;934;-88
2022/05/13 05:26:46;;;;;;;;;;;;;;;11.08;73.96;100587.94;5017892;28;1445;-89
2022/05/13 05:29:11;;;;;;;;;;;;;;;11.07;74.24;100589.84;5017717;28;830;-89
2022/05/13 05:31:36;;;;;;;;;;;;;;;11.04;74.64;100584.13;5017694;28;1244;-89
2022/05/13 05:34:02;;;;;;;;;;;;;;;11.19;74.21;100590.34;5017608;28;1906;-89
2022/05/13 05:36:27;;;;;;;;;;;;;;;11.30;74.36;100580.97;5017625;28;1334;-89
2022/05/13 05:38:53;;;;;;;;;;;;;;;11.34;74.23;100583.94;5017893;28;1201;-89
2022/05/13 05:41:19;;;;;;;;;;;;;;;11.56;74.71;100580.81;5017624;28;1272;-89
2022/05/13 05:43:44;;;;;;;;;;;;;;;11.71;74.96;100580.69;5017929;28;1307;-89
2022/05/13 05:46:09;;;;;;;;;;;;;;;11.82;75.03;100593.25;5023013;28;1260;-89
2022/05/13 05:48:35;;;;;;;;;;;;;;;11.89;75.40;100593.75;5005246;28;1117;-88
2022/05/13 05:51:00;;;;;;;;;;;;;;;11.95;74.81;100598.06;5009829;28;1363;-89
2022/05/13 05:58:55;;;;;;;;;;;;;;;12.01;73.98;100607.06;5011813;28;1521;-88
2022/05/13 06:01:20;;;;;;;;;;;;;;;12.03;73.40;100613.09;5030102;28;1278;-90
2022/05/13 06:03:45;;;;;;;;;;;;;;;11.85;73.82;100617.34;5012225;28;1642;-90
2022/05/13 06:06:12;;;;;;;;;;;;;;;11.86;73.19;100618.16;5009577;28;1517;-89
2022/05/13 06:08:37;;;;;;;;;;;;;;;11.85;73.82;100617.34;4997311;28;1204;-90
2022/05/13 06:11:02;;;;;;;;;;;;;;;11.63;73.36;100626.00;4991447;28;1261;-89
2022/05/13 06:13:27;;;;;;;;;;;;;;;11.78;73.52;100627.00;4999658;28;1898;-89
2022/05/13 06:15:53;;;;;;;;;;;;;;;11.97;73.44;100627.97;5001706;28;1792;-90
2022/05/13 06:18:18;;;;;;;;;;;;;;;11.98;73.78;100637.84;5003712;28;1091;-89
2022/05/13 06:20:43;;;;;;;;;;;;;;;12.08;73.72;100640.47;5033418;28;1285;-89
2022/05/13 06:23:08;;;;;;;;;;;;;;;12.04;72.44;100647.66;5015745;28;1274;-89
2022/05/13 06:25:34;;;;;;;;;;;;;;;12.05;72.75;100655.59;5010836;28;1409;-89
2022/05/13 06:28:00;;;;;;;;;;;;;;;12.11;73.05;100645.41;4996109;28;1714;-89
2022/05/13 06:30:27;;;;;;;;;;;;;;;12.06;73.30;100650.94;5012678;28;1388;-87
2022/05/13 06:32:52;;;;;;;;;;;;;;;12.18;73.39;100658.78;5013871;28;1459;-88
2022/05/13 06:35:19;;;;;;;;;;;;;;;12.26;73.36;100653.50;4998240;28;1894;-89
2022/05/13 06:37:44;;;;;;;;;;;;;;;12.29;73.06;100652.94;4998283;28;1241;-88
2022/05/13 06:40:09;;;;;;;;;;;;;;;12.38;73.00;100658.63;4998127;28;1197;-88
2022/05/13 06:42:34;;;;;;;;;;;;;;;12.46;74.69;100660.75;4998258;28;1197;-87
2022/05/13 06:45:00;;;;;;;;;;;;;;;12.50;74.45;100659.84;4997937;28;1219;-88
2022/05/13 06:47:25;;;;;;;;;;;;;;;12.64;73.33;100657.25;5013407;28;1290;-89
2022/05/13 06:49:50;;;;;;;;;;;;;;;12.75;72.85;100656.06;5009089;28;1443;-88
2022/05/13 06:52:15;;;;;;;;;;;;;;;12.80;72.20;100666.16;4994091;28;853;-89
2022/05/13 06:54:41;;;;;;;;;;;;;;;12.79;71.39;100672.75;5000569;28;1911;-88
2022/05/13 06:57:07;;;;;;;;;;;;;;;12.77;71.07;100674.97;5012062;28;1476;-88
2022/05/13 06:59:32;;;;;;;;;;;;;;;12.74;69.85;100678.31;4996448;28;1204;-88
2022/05/13 07:01:57;;;;;;;;;;;;;;;12.57;67.53;100680.69;4997861;28;1198;-88
2022/05/13 07:04:24;;;;;;;;;;;;;;;12.64;68.69;100668.25;4998635;28;1355;-88
2022/05/13 07:06:50;;;;;;;;;;;;;;;12.80;66.06;100666.16;4997518;28;1161;-89
2022/05/13 07:09:15;;;;;;;;;;;;;;;13.02;65.84;100668.38;4995967;28;1640;-88
2022/05/13 07:11:40;;;;;;;;;;;;;;;13.06;67.22;100666.69;4995713;28;1361;-90
2022/05/13 07:14:05;;;;;;;;;;;;;;;13.08;65.91;100667.22;5015770;28;1902;-92
2022/05/13 07:16:31;;;;;;;;;;;;;;;13.17;66.72;100669.06;5000544;28;1397;-90
2022/05/13 07:18:56;;;;;;;;;;;;;;;13.34;65.91;100651.25;5016039;28;1223;-88
2022/05/13 07:21:21;;;;;;;;;;;;;;;13.61;65.71;100648.66;4994272;28;1279;-91
2022/05/13 07:23:46;;;;;;;;;;;;;;;13.82;63.50;100651.94;4997370;28;1701;-89
2022/05/13 07:26:11;;;;;;;;;;;;;;;13.98;63.24;100667.94;4999587;28;1646;-90
2022/05/13 07:28:38;;;;;;;;;;;;;;;13.95;60.53;100676.75;5026797;28;1761;-89
2022/05/13 07:31:04;;;;;;;;;;;;;;;13.88;64.46;100678.25;4999021;28;1375;-88
2022/05/13 07:33:30;;;;;;;;;;;;;;;13.78;61.43;100690.22;5014811;28;1899;-89
2022/05/13 07:35:55;;;;;;;;;;;;;;;13.61;61.34;100679.75;5027883;28;1747;-87
2022/05/13 07:38:21;;;;;;;;;;;;;;;13.55;63.09;100683.69;5001076;28;1829;-89
2022/05/13 07:43:30;;;;;;;;;;;;;;;13.61;62.20;100700.91;5016847;28;1482;-90
2022/05/13 07:45:55;;;;;;;;;;;;;;;13.48;60.78;100698.91;5006642;28;1209;-90
2022/05/13 07:48:20;;;;;;;;;;;;;;;13.44;60.93;100700.63;5020733;28;1464;-89
2022/05/13 07:50:45;;;;;;;;;;;;;;;13.15;60.98;100696.03;5024106;28;1394;-91
2022/05/13 07:53:10;;;;;;;;;;;;;;;13.05;61.60;100695.28;5004065;28;1898;-91
2022/05/13 07:55:35;;;;;;;;;;;;;;;13.21;61.81;100702.25;5006665;28;1423;-88
2022/05/13 07:58:01;;;;;;;;;;;;;;;13.27;59.18;100704.66;5025912;28;1413;-91
2022/05/13 08:00:26;;;;;;;;;;;;;;;13.42;60.81;100697.34;4997456;28;1625;-91
2022/05/13 08:03:11;;;;;;;;;;;;;;;13.48;61.22;100690.66;5017505;28;1434;-89
2022/05/13 08:05:42;;;;;;;;;;;;;;;13.51;60.78;100701.91;5013930;28;1753;-89
2022/05/13 08:08:15;;;;;;;;;;;;;;;13.61;60.13;100709.19;5017633;28;1556;-90
2022/05/13 08:10:43;;;;;;;;;;;;;;;13.60;59.00;100710.31;5006252;28;1394;-88
2022/05/13 08:13:08;;;;;;;;;;;;;;;13.52;58.57;100706.28;5015739;28;1894;-87
2022/05/13 08:15:33;;;;;;;;;;;;;;;13.52;59.89;100703.53;4998428;28;1451;-89
2022/05/13 08:17:59;;;;;;;;;;;;;;;13.70;57.64;100707.41;5015959;28;1196;-89
2022/05/13 08:20:27;;;;;;;;;;;;;;;13.76;58.97;100713.69;4999898;28;1334;-88
2022/05/13 08:22:52;;;;;;;;;;;;;;;13.75;58.93;100704.59;4982247;28;1518;-88
2022/05/13 08:25:17;;;;;;;;;;;;;;;13.66;58.74;100709.13;4998805;28;1813;-88
2022/05/13 08:27:43;;;;;;;;;;;;;;;13.53;60.85;100712.59;5007049;28;1462;-89
2022/05/13 08:30:09;;;;;;;;;;;;;;;13.45;59.90;100716.00;4998931;28;1565;-88
2022/05/13 08:32:34;;;;;;;;;;;;;;;13.45;60.79;100713.25;4998871;28;1182;-90
2022/05/13 08:34:59;;;;;;;;;;;;;;;13.64;60.99;100719.59;4997912;28;1902;-90
2022/05/13 08:37:24;;;;;;;;;;;;;;;14.02;60.20;100720.44;5016665;28;1087;-90
2022/05/13 08:39:50;;;;;;;;;;;;;;;14.19;60.64;100720.75;5016272;28;1280;-90
2022/05/13 08:42:18;;;;;;;;;;;;;;;14.05;59.77;100719.84;4998494;28;1859;-88
2022/05/13 08:44:49;;;;;;;;;;;;;;;14.05;61.67;100721.75;4998293;28;1449;-88
2022/05/13 08:47:41;;;;;;;;;;;;;;;14.24;60.86;100728.09;5015906;28;1808;-89
2022/05/13 08:50:15;;;;;;;;;;;;;;;14.17;59.37;100720.22;5021934;28;1217;-88
2022/05/13 08:55:32;;;;;;;;;;;;;;;13.89;62.61;100711.00;5016310;28;1895;-89
2022/05/13 08:57:58;;;;;;;;;;;;;;;13.80;61.67;100715.53;4998218;28;1355;-90
2022/05/13 09:00:30;;;;;;;;;;;;;;;13.91;59.78;100718.94;4998321;28;1193;-90
2022/05/13 09:03:11;;;;;;;;;;;;;;;14.05;59.87;100717.09;4998344;28;1296;-90
2022/05/13 09:05:40;;;;;;;;;;;;;;;14.03;60.62;100716.59;4998360;28;1270;-90
2022/05/13 09:08:06;;;;;;;;;;;;;;;13.96;60.03;100716.13;4997137;28;1222;-88
2022/05/13 09:10:35;;;;;;;;;;;;;;;14.03;59.45;100719.34;5022292;28;1939;-88
2022/05/13 09:13:09;;;;;;;;;;;;;;;14.13;61.03;100718.34;5035568;28;1008;-89
2022/05/13 09:15:47;;;;;;;;;;;;;;;14.31;60.72;100725.75;5035471;28;1012;-88
2022/05/13 09:18:19;;;;;;;;;;;;;;;14.45;59.80;100709.34;4978508;28;1348;-89
2022/05/13 09:20:48;;;;;;;;;;;;;;;14.49;58.33;100727.72;4978625;28;1360;-90
2022/05/13 09:23:14;;;;;;;;;;;;;;;14.53;57.80;100727.94;4994055;28;1327;-89
2022/05/13 09:25:42;;;;;;;;;;;;;;;14.68;56.12;100731.25;5008441;28;1201;-87
2022/05/13 09:28:11;;;;;;;;;;;;;;;14.62;56.92;100713.19;5034174;28;1255;-88
2022/05/13 09:30:38;;;;;;;;;;;;;;;14.75;56.41;100720.63;5013487;28;1591;-88
2022/05/13 09:33:20;;;;;;;;;;;;;;;14.86;55.56;100712.19;4997457;28;1639;-89
2022/05/13 09:35:46;;;;;;;;;;;;;;;14.83;57.36;100719.13;5015045;28;880;-90
2022/05/13 09:38:16;;;;;;;;;;;;;;;14.91;56.11;100714.84;4997402;28;1725;-89
2022/05/13 09:43:31;;;;;;;;;;;;;;;15.08;56.34;100723.34;5064997;23;1655;-89
2022/05/13 09:46:10;;;;;;;;;;;;;;;14.97;54.56;100713.66;4981207;28;1709;-89
2022/05/13 09:48:37;;;;;;;;;;;;;;;14.87;53.00;100703.63;5015509;28;1752;-92
2022/05/13 09:51:21;;;;;;;;;;;;;;;14.69;55.00;100715.53;4998792;28;1340;-89
2022/05/13 09:53:58;;;;;;;;;;;;;;;14.67;54.80;100717.75;5016765;28;1879;-91
2022/05/13 09:56:33;;;;;;;;;;;;;;;14.68;56.16;100724.91;4997900;28;1478;-91
2022/05/13 09:59:03;;;;;;;;;;;;;;;14.46;54.61;100724.75;4994804;28;1363;-89
2022/05/13 10:01:29;;;;;;;;;;;;;;;14.52;55.98;100710.59;4998707;28;1319;-89
2022/05/13 10:04:08;;;;;;;;;;;;;;;14.60;54.80;100712.66;4999670;28;1195;-88
2022/05/13 10:06:35;;;;;;;;;;;;;;;14.62;54.28;100707.66;4996625;28;1610;-89
2022/05/13 10:14:32;;;;;;;;;;;;;;;14.97;54.30;100708.94;5015275;28;1906;-89
2022/05/13 10:17:02;;;;;;;;;;;;;;;15.05;53.58;100712.94;4996172;28;1556;-89
2022/05/13 10:19:35;;;;;;;;;;;;;;;14.94;52.24;100711.50;5000038;28;1296;-90
2022/05/13 10:22:19;;;;;;;;;;;;;;;15.01;54.13;100709.97;4998781;28;1354;-89
2022/05/13 10:24:54;;;;;;;;;;;;;;;15.42;53.70;100715.47;4998538;28;1421;-88
2022/05/13 10:27:39;;;;;;;;;;;;;;;15.48;54.67;100724.50;4998700;28;1252;-89
2022/05/13 10:30:04;;;;;;;;;;;;;;;15.42;52.92;100709.97;4998775;28;1449;-89
2022/05/13 10:32:44;;;;;;;;;;;;;;;15.39;53.66;100718.88;5000579;28;1251;-90
2022/05/13 10:35:12;;;;;;;;;;;;;;;15.24;53.76;100713.66;4983524;28;1875;-91
2022/05/13 10:37:50;;;;;;;;;;;;;;;15.16;52.44;100714.34;4999045;28;1517;-89
2022/05/13 10:40:18;;;;;;;;;;;;;;;15.08;53.45;100720.59;5015472;28;1346;-92
2022/05/13 10:43:08;;;;;;;;;;;;;;;15.18;53.35;100717.63;5013767;28;1307;-91
2022/05/13 10:45:33;;;;;;;;;;;;;;;15.35;53.15;100723.34;4953935;28;1736;-89
2022/05/13 10:48:28;;;;;;;;;;;;;;;15.42;51.65;100726.50;4976885;28;1504;-89
2022/05/13 10:51:06;;;;;;;;;;;;;;;15.71;52.61;100717.94;4973936;28;1566;-89
2022/05/13 10:53:40;;;;;;;;;;;;;;;16.02;51.18;100712.53;4996069;28;1894;-89
2022/05/13 10:56:24;;;;;;;;;;;;;;;16.01;51.61;100713.66;4997422;28;1209;-89
2022/05/13 10:59:12;;;;;;;;;;;;;;;15.78;51.91;100712.00;5014942;28;1025;-89
2022/05/13 11:01:59;;;;;;;;;;;;;;;15.58;50.96;100716.00;4980238;28;1211;-89
2022/05/13 11:04:31;;;;;;;;;;;;;;;15.63;52.76;100715.91;4999649;28;1275;-89
2022/05/13 11:07:10;;;;;;;;;;;;;;;15.80;51.95;100718.03;5015173;28;1413;-88
2022/05/13 11:09:42;;;;;;;;;;;;;;;15.70;51.20;100719.06;5017578;28;1453;-89
2022/05/13 11:12:21;;;;;;;;;;;;;;;15.81;50.99;100717.72;5000286;28;1220;-90
2022/05/13 11:14:56;;;;;;;;;;;;;;;15.89;51.06;100708.72;5000337;28;1910;-89
2022/05/13 11:17:30;;;;;;;;;;;;;;;16.01;51.54;100721.94;4999929;28;1209;-90
2022/05/13 11:20:20;;;;;;;;;;;;;;;16.06;49.05;100721.03;4999699;28;1342;-89
2022/05/13 11:23:08;;;;;;;;;;;;;;;16.13;48.27;100725.00;5017938;28;1122;-90
2022/05/13 11:51:23;;;;;;;;;;;;;;;15.80;48.08;100742.88;5015715;28;1425;-92
2022/05/13 11:54:11;;;;;;;;;;;;;;;16.03;48.73;100732.69;5017780;28;1910;-89
2022/05/13 11:56:38;;;;;;;;;;;;;;;16.24;47.30;100737.44;4999335;28;1311;-89
2022/05/13 11:59:11;;;;;;;;;;;;;;;16.26;47.48;100729.63;5000407;28;1385;-90
2022/05/13 12:01:36;;;;;;;;;;;;;;;16.34;48.38;100735.53;5000511;28;1388;-89
2022/05/13 12:17:41;;;;;;;;;;;;;;;16.55;46.78;100748.56;5047905;23;1667;-88
2022/05/13 12:20:12;;;;;;;;;;;;;;;16.74;45.73;100739.28;4999154;28;1301;-87
2022/05/13 12:22:59;;;;;;;;;;;;;;;16.94;46.57;100722.97;5015502;28;1350;-86
2022/05/13 12:25:30;;;;;;;;;;;;;;;17.12;44.87;100717.50;4999065;28;1358;-89
2022/05/13 12:28:07;;;;;;;;;;;;;;;17.24;46.67;100726.03;5015699;28;1202;-88
2022/05/13 12:30:37;;;;;;;;;;;;;;;17.18;44.79;100727.31;4998808;28;1177;-87
2022/05/13 12:33:18;;;;;;;;;;;;;;;17.13;48.63;100730.22;4999143;28;1339;-87
2022/05/13 12:38:27;;;;;;;;;;;;;;;17.27;46.71;100731.72;5017905;28;585;-89
2022/05/13 12:41:10;;;;;;;;;;;;;;;17.47;46.38;100732.28;5017367;28;873;-88
2022/05/13 12:43:53;;;;;;;;;;;;;;;17.48;47.12;100743.03;4999437;28;1390;-88
2022/05/13 12:46:37;;;;;;;;;;;;;;;17.10;47.93;100737.19;4999347;28;1229;-88
2022/05/13 12:49:17;;;;;;;;;;;;;;;17.02;46.96;100736.00;5014858;28;1179;-87
2022/05/13 12:51:46;;;;;;;;;;;;;;;17.01;48.18;100741.88;4998595;28;1513;-87
2022/05/13 12:54:12;;;;;;;;;;;;;;;17.16;48.15;100735.13;5014839;28;1890;-89
2022/05/13 12:56:41;;;;;;;;;;;;;;;17.06;48.45;100757.50;5016067;28;1019;-87
2022/05/13 12:59:15;;;;;;;;;;;;;;;16.92;47.05;100749.31;5016127;28;1000;-88
2022/05/13 13:01:42;;;;;;;;;;;;;;;16.96;47.41;100748.34;4998761;28;1375;-87
2022/05/13 13:04:08;;;;;;;;;;;;;;;16.81;47.07;100743.22;5014838;28;1271;-87
2022/05/13 13:06:41;;;;;;;;;;;;;;;17.07;46.54;100757.19;4999233;28;1221;-88
2022/05/13 13:09:34;;;;;;;;;;;;;;;16.97;45.75;100744.47;5016477;28;1012;-90
2022/05/13 13:12:18;;;;;;;;;;;;;;;17.36;44.77;100732.56;4999871;28;1189;-89
2022/05/13 13:15:03;;;;;;;;;;;;;;;17.97;46.71;100735.53;5015378;28;1969;-89
2022/05/13 13:17:52;;;;;;;;;;;;;;;18.75;44.28;100733.56;5016614;28;954;-90
2022/05/13 13:20:18;;;;;;;;;;;;;;;19.58;41.50;100742.25;4999011;28;1504;-90
2022/05/13 13:22:47;;;;;;;;;;;;;;;20.57;39.90;100723.91;5015548;28;1114;-87
2022/05/13 13:25:26;;;;;;;;;;;;;;;22.27;37.47;100721.19;4997749;28;1201;-87
2022/05/13 13:27:56;;;;;;;;;;;;;;;24.97;33.18;100719.31;4998146;28;1265;-87
2022/05/13 13:30:23;;;;;;;;;;;;;;;26.65;29.21;100707.41;4998283;28;1217;-90
2022/05/13 13:32:49;;;;;;;;;;;;;;;24.79;33.07;100710.56;4998161;28;1387;-89
2022/05/13 13:35:15;;;;;;;;;;;;;;;24.89;31.55;100706.34;4998042;28;1902;-88
2022/05/13 13:37:40;;;;;;;;;;;;;;;27.07;28.70;100737.97;4997969;28;1179;-88
2022/05/13 13:40:17;;;;;;;;;;;;;;;26.27;28.30;100713.41;4997564;28;1478;-89
2022/05/13 13:42:42;;;;;;;;;;;;;;;24.54;31.48;100708.47;4997602;28;1375;-89
2022/05/13 13:45:20;;;;;;;;;;;;;;;22.83;35.98;100717.59;4997906;28;1309;-88
2022/05/13 13:47:48;;;;;;;;;;;;;;;21.57;38.96;100727.31;4997764;28;1226;-89
2022/05/13 13:50:19;;;;;;;;;;;;;;;22.87;34.67;100735.25;4997793;28;1169;-88
2022/05/13 13:52:44;;;;;;;;;;;;;;;22.45;35.27;100727.28;5014283;28;1227;-88
2022/05/13 13:55:14;;;;;;;;;;;;;;;20.54;37.76;100730.13;4997616;28;1894;-89
2022/05/13 13:57:51;;;;;;;;;;;;;;;20.19;39.47;100728.78;4997570;28;1372;-90
2022/05/13 14:00:21;;;;;;;;;;;;;;;19.92;41.74;100725.38;4997622;28;1272;-88
2022/05/13 14:05:57;;;;;;;;;;;;;;;20.48;39.27;100720.38;5016422;28;1232;-88
2022/05/13 14:08:24;;;;;;;;;;;;;;;19.72;39.83;100726.19;4998186;28;1376;-88
2022/05/13 14:10:54;;;;;;;;;;;;;;;19.23;42.31;100731.28;4997754;28;1218;-88
2022/05/13 14:13:19;;;;;;;;;;;;;;;18.92;42.76;100733.53;4998003;28;1422;-89